Details From SKMD - Medellin Olaya Herrera
To SKCG - RAFAEL NUNEZ
Flight Number -
Tags generated
Created
Modified
Stats Distance 254 nm / 470 km
Max Altitude 33,300 ft / 10,150 m
Waypoints 4
Social Downloads 0
Likes 0
Share VATSIM

Download

Looking for another format? Having issues loading an existing format? Contact us
Advertisement - Login to hide

Notes

Basic altitude profile: - Ascent Rate: 2500ft/min - Ascent Speed: 250kts - Cruise Altitude: 34000ft - Cruise Speed: 420kts - Descent Rate: 1500ft/min - Descent Speed: 250kts Options: - Use NATs: yes - Use PACOTS: yes - Use low airways: yes - Use high airways: yes

Route

SKMD BUTAL UG438 CTG SKCG

ID Type Via Altitude Latitude Longitude Leg Dist Tot Dist Heading (true) Name
O SKMD APT - 0 ft / 0 m 6.21996˚ -75.59052˚ - 0 nm - Medellin Olaya Herrera
BUTAL FIX - 33,300 ft / 10,150 m 7.85361˚ -75.45722˚ 98 nm 98 nm 5° / 5° -
CTG VOR UG438 (AWY-HI) 24,500 ft / 7,468 m 10.20836˚ -75.50608˚ 141 nm 239 nm 359° / 359° CARTAGENA VOR-DME
O SKCG APT - 0 ft / 0 m 10.44238˚ -75.51296˚ 14 nm 253 nm 358° / 358° RAFAEL NUNEZ

Altitude Profile

Advertisement - Login to hide

Weather


0- 5 10 15 20 25 30 35+ Temperature / ° C

Clouds and Precipitation
Forecast for 2018-05-26 12:00 UTC. Updated an hour ago

Ground ~20,000 ft ~40,000 ft Winds

SKMD

Details ICAO SKMD (EOH)
Name Medellin Olaya Herrera
Region Colombia
Timezone America/Bogota (UTC-5.0)
Stats Elevation 4,940 ft / 1,506 m (AMSL)
Location 6.219958° -75.590519°
Runways 1
Magnetic Variation 6.592° W

METAR

SKMD 261200Z 36010KT 8000 6000S SCT020 BKN100 20/18 A3013 RMK HZ

Decode

TAF

Not found

Departure Runways

ID Width Length Bearing (true) Bearing (mag) Surface Threshold Offset Overrun Length
02 148 ft / 45 m 8,324 ft / 2,537 m 10.66° 17.25° Asphalt 1,316 ft / 401 m 0 ft / 0 m
20 148 ft / 45 m 8,324 ft / 2,537 m 190.66° 197.25° Asphalt 1,012 ft / 308 m 0 ft / 0 m

SKCG

Details ICAO SKCG (CTG)
Name RAFAEL NUNEZ
Region Colombia
Timezone America/Bogota (UTC-5.0)
Stats Elevation 4 ft / 1 m (AMSL)
Location 10.442379° -75.512961°
Runways 1
Magnetic Variation 7.263° W

METAR

SKCG 261200Z 10004KT 9000 FEW015 SCT200 27/26 A2980

Decode

TAF

TAF SKCG 261100Z 261212 04004KT 9999 FEW017 TEMPO 2612/2613 8000 VCFG SCT010 TEMPO 2618/2624 32008KT SCT018TCU TEMPO 2620/2623 7000 RA SCT015CB TEMPO 2700/2702 8000 DZ SCT014TCU TEMPO 2710/2712 7000 VCFG SCT010 TX34/2618Z TN25/2711Z

Decode

Destination Runways

ID Width Length Bearing (true) Bearing (mag) Surface Threshold Offset Overrun Length
01 148 ft / 45 m 8,584 ft / 2,616 m 2.31° 9.57° Asphalt 0 ft / 0 m 180 ft / 55 m
19 148 ft / 45 m 8,584 ft / 2,616 m 182.31° 189.57° Asphalt 190 ft / 58 m 0 ft / 0 m

Popular Alternatives